sensor_id;sensor_type;location;lat;lon;timestamp;pressure;altitude;pressure_sealevel;temperature;humidity
5753;BME280;2901;42.140;24.760;2022-08-19T00:01:50;98919.00;;;26.99;57.35
5753;BME280;2901;42.140;24.760;2022-08-19T00:04:18;98926.47;;;26.94;58.12
5753;BME280;2901;42.140;24.760;2022-08-19T00:06:47;98918.41;;;26.85;58.05
5753;BME280;2901;42.140;24.760;2022-08-19T00:09:15;98929.06;;;26.85;58.40
5753;BME280;2901;42.140;24.760;2022-08-19T00:11:41;98918.69;;;26.81;58.35
5753;BME280;2901;42.140;24.760;2022-08-19T00:14:08;98916.50;;;26.87;58.37
5753;BME280;2901;42.140;24.760;2022-08-19T00:16:35;98918.31;;;26.86;58.30
5753;BME280;2901;42.140;24.760;2022-08-19T00:19:01;98915.41;;;26.89;58.58
5753;BME280;2901;42.140;24.760;2022-08-19T00:21:26;98913.38;;;26.81;58.25
5753;BME280;2901;42.140;24.760;2022-08-19T00:23:53;98915.06;;;26.71;58.50
5753;BME280;2901;42.140;24.760;2022-08-19T00:26:19;98913.41;;;26.59;59.20
5753;BME280;2901;42.140;24.760;2022-08-19T00:28:44;98915.81;;;26.51;59.59
5753;BME280;2901;42.140;24.760;2022-08-19T00:31:10;98924.03;;;26.48;59.76
5753;BME280;2901;42.140;24.760;2022-08-19T00:33:36;98917.06;;;26.47;59.68
5753;BME280;2901;42.140;24.760;2022-08-19T00:36:04;98909.09;;;26.47;59.84
5753;BME280;2901;42.140;24.760;2022-08-19T00:38:31;98905.09;;;26.42;60.19
5753;BME280;2901;42.140;24.760;2022-08-19T00:40:57;98900.41;;;26.45;60.08
5753;BME280;2901;42.140;24.760;2022-08-19T00:43:25;98906.19;;;26.50;60.49
5753;BME280;2901;42.140;24.760;2022-08-19T00:45:51;98895.81;;;26.47;60.95
5753;BME280;2901;42.140;24.760;2022-08-19T00:48:18;98886.41;;;26.43;61.59
5753;BME280;2901;42.140;24.760;2022-08-19T00:50:45;98887.38;;;26.42;62.37
5753;BME280;2901;42.140;24.760;2022-08-19T00:53:14;98892.22;;;26.37;63.19
5753;BME280;2901;42.140;24.760;2022-08-19T00:55:42;98890.06;;;26.31;63.15
5753;BME280;2901;42.140;24.760;2022-08-19T00:58:12;98883.56;;;26.24;63.96
5753;BME280;2901;42.140;24.760;2022-08-19T01:00:38;98883.06;;;26.19;63.86
5753;BME280;2901;42.140;24.760;2022-08-19T01:03:10;98877.03;;;26.17;64.43
5753;BME280;2901;42.140;24.760;2022-08-19T01:05:37;98877.97;;;26.16;64.27
5753;BME280;2901;42.140;24.760;2022-08-19T01:08:06;98880.56;;;26.17;64.43
5753;BME280;2901;42.140;24.760;2022-08-19T01:10:37;98871.81;;;26.15;65.00
5753;BME280;2901;42.140;24.760;2022-08-19T01:13:04;98874.72;;;26.12;65.59
5753;BME280;2901;42.140;24.760;2022-08-19T01:15:33;98875.09;;;26.08;65.73
5753;BME280;2901;42.140;24.760;2022-08-19T01:18:05;98863.88;;;26.04;66.00
5753;BME280;2901;42.140;24.760;2022-08-19T01:20:31;98877.25;;;26.03;65.68
5753;BME280;2901;42.140;24.760;2022-08-19T01:22:58;98878.47;;;25.99;66.04
5753;BME280;2901;42.140;24.760;2022-08-19T01:25:28;98885.09;;;25.93;66.75
5753;BME280;2901;42.140;24.760;2022-08-19T01:27:55;98877.75;;;25.86;67.47
5753;BME280;2901;42.140;24.760;2022-08-19T01:30:28;98885.59;;;25.76;68.39
5753;BME280;2901;42.140;24.760;2022-08-19T01:32:54;98889.44;;;25.72;68.35
5753;BME280;2901;42.140;24.760;2022-08-19T01:35:22;98894.75;;;25.61;68.88
5753;BME280;2901;42.140;24.760;2022-08-19T01:38:00;98898.91;;;25.41;68.93
5753;BME280;2901;42.140;24.760;2022-08-19T01:40:29;98907.94;;;25.39;69.77
5753;BME280;2901;42.140;24.760;2022-08-19T01:42:56;98915.94;;;25.26;70.36
5753;BME280;2901;42.140;24.760;2022-08-19T01:45:24;98914.28;;;25.25;70.58
5753;BME280;2901;42.140;24.760;2022-08-19T01:47:50;98912.81;;;25.21;70.83
5753;BME280;2901;42.140;24.760;2022-08-19T01:50:16;98916.03;;;25.13;71.28
5753;BME280;2901;42.140;24.760;2022-08-19T01:52:43;98917.81;;;25.02;71.60
5753;BME280;2901;42.140;24.760;2022-08-19T01:55:12;98933.94;;;24.99;72.31
5753;BME280;2901;42.140;24.760;2022-08-19T01:57:39;98923.28;;;25.11;71.88
5753;BME280;2901;42.140;24.760;2022-08-19T02:00:09;98938.41;;;25.09;72.49
5753;BME280;2901;42.140;24.760;2022-08-19T02:02:35;98935.00;;;24.96;72.75
5753;BME280;2901;42.140;24.760;2022-08-19T02:05:00;98940.44;;;24.95;72.77
5753;BME280;2901;42.140;24.760;2022-08-19T02:07:26;98936.31;;;24.91;73.31
5753;BME280;2901;42.140;24.760;2022-08-19T02:09:53;98933.88;;;24.88;72.89
5753;BME280;2901;42.140;24.760;2022-08-19T02:12:20;98934.13;;;24.85;72.89
5753;BME280;2901;42.140;24.760;2022-08-19T02:14:46;98938.56;;;24.84;73.36
5753;BME280;2901;42.140;24.760;2022-08-19T02:17:11;98937.72;;;24.84;73.58
5753;BME280;2901;42.140;24.760;2022-08-19T02:19:37;98949.16;;;24.84;73.40
5753;BME280;2901;42.140;24.760;2022-08-19T02:22:02;98948.50;;;24.80;73.66
5753;BME280;2901;42.140;24.760;2022-08-19T02:24:28;98947.84;;;24.90;73.01
5753;BME280;2901;42.140;24.760;2022-08-19T02:26:53;98951.97;;;24.94;73.55
5753;BME280;2901;42.140;24.760;2022-08-19T02:29:19;98946.44;;;24.97;73.52
5753;BME280;2901;42.140;24.760;2022-08-19T02:31:45;98954.16;;;25.00;72.66
5753;BME280;2901;42.140;24.760;2022-08-19T02:34:10;98948.03;;;24.99;72.52
5753;BME280;2901;42.140;24.760;2022-08-19T02:36:36;98949.00;;;24.98;72.16
5753;BME280;2901;42.140;24.760;2022-08-19T02:39:02;98956.81;;;25.00;72.38
5753;BME280;2901;42.140;24.760;2022-08-19T02:41:31;98950.78;;;24.98;73.15
5753;BME280;2901;42.140;24.760;2022-08-19T02:43:59;98960.53;;;24.97;73.48
5753;BME280;2901;42.140;24.760;2022-08-19T02:46:28;98964.53;;;25.03;73.30
5753;BME280;2901;42.140;24.760;2022-08-19T02:48:57;98966.75;;;25.09;72.89
5753;BME280;2901;42.140;24.760;2022-08-19T02:51:28;98959.63;;;25.09;72.51
5753;BME280;2901;42.140;24.760;2022-08-19T02:53:54;98960.69;;;25.07;72.25
5753;BME280;2901;42.140;24.760;2022-08-19T02:56:20;98966.69;;;24.98;72.76
5753;BME280;2901;42.140;24.760;2022-08-19T02:58:46;98970.06;;;25.00;72.31
5753;BME280;2901;42.140;24.760;2022-08-19T03:01:21;98975.03;;;25.04;72.13
5753;BME280;2901;42.140;24.760;2022-08-19T03:03:46;98967.19;;;25.03;72.39
5753;BME280;2901;42.140;24.760;2022-08-19T03:06:14;98968.88;;;25.04;72.32
5753;BME280;2901;42.140;24.760;2022-08-19T03:08:45;98971.31;;;25.07;72.01
5753;BME280;2901;42.140;24.760;2022-08-19T03:11:16;98969.50;;;25.07;72.10
5753;BME280;2901;42.140;24.760;2022-08-19T03:13:42;98969.00;;;25.02;72.20
5753;BME280;2901;42.140;24.760;2022-08-19T03:16:08;98970.44;;;25.06;72.25
5753;BME280;2901;42.140;24.760;2022-08-19T03:18:34;98972.88;;;25.09;72.14
5753;BME280;2901;42.140;24.760;2022-08-19T03:20:59;98979.47;;;25.04;71.63
5753;BME280;2901;42.140;24.760;2022-08-19T03:23:25;98985.72;;;25.03;71.37
5753;BME280;2901;42.140;24.760;2022-08-19T03:25:52;98983.81;;;25.05;71.50
5753;BME280;2901;42.140;24.760;2022-08-19T03:28:19;98980.31;;;25.04;71.40
5753;BME280;2901;42.140;24.760;2022-08-19T03:30:58;98991.66;;;25.06;72.04
5753;BME280;2901;42.140;24.760;2022-08-19T03:33:25;98991.56;;;25.08;72.01
5753;BME280;2901;42.140;24.760;2022-08-19T03:36:15;98991.41;;;25.09;71.92
5753;BME280;2901;42.140;24.760;2022-08-19T03:38:44;98975.88;;;25.05;72.10
5753;BME280;2901;42.140;24.760;2022-08-19T03:41:13;98989.28;;;25.14;72.11
5753;BME280;2901;42.140;24.760;2022-08-19T03:43:41;98991.63;;;25.19;72.21
5753;BME280;2901;42.140;24.760;2022-08-19T03:46:10;98990.47;;;25.10;73.46
5753;BME280;2901;42.140;24.760;2022-08-19T03:48:37;98993.88;;;25.12;73.57
5753;BME280;2901;42.140;24.760;2022-08-19T03:51:04;98996.72;;;25.09;73.35
5753;BME280;2901;42.140;24.760;2022-08-19T03:53:30;98995.66;;;25.12;73.08
5753;BME280;2901;42.140;24.760;2022-08-19T03:55:56;99007.28;;;25.22;72.98
5753;BME280;2901;42.140;24.760;2022-08-19T03:58:23;99002.38;;;25.28;72.71
5753;BME280;2901;42.140;24.760;2022-08-19T04:00:49;99003.09;;;25.30;73.10
5753;BME280;2901;42.140;24.760;2022-08-19T04:03:15;98998.31;;;25.36;72.37
5753;BME280;2901;42.140;24.760;2022-08-19T04:05:40;99002.78;;;25.46;71.88
5753;BME280;2901;42.140;24.760;2022-08-19T04:08:05;98996.09;;;25.53;69.45
5753;BME280;2901;42.140;24.760;2022-08-19T04:10:37;99000.06;;;25.59;68.91
5753;BME280;2901;42.140;24.760;2022-08-19T04:13:04;99010.97;;;25.67;70.17
5753;BME280;2901;42.140;24.760;2022-08-19T04:15:31;99005.31;;;25.71;71.04
5753;BME280;2901;42.140;24.760;2022-08-19T04:18:01;99009.91;;;25.80;70.24
5753;BME280;2901;42.140;24.760;2022-08-19T04:20:27;99018.34;;;25.86;70.92
5753;BME280;2901;42.140;24.760;2022-08-19T04:22:52;99008.34;;;25.89;71.16
5753;BME280;2901;42.140;24.760;2022-08-19T04:25:17;99010.16;;;25.89;71.67
5753;BME280;2901;42.140;24.760;2022-08-19T04:27:43;99008.84;;;25.83;71.70
5753;BME280;2901;42.140;24.760;2022-08-19T04:30:12;99009.31;;;25.77;71.51
5753;BME280;2901;42.140;24.760;2022-08-19T04:32:38;99009.66;;;25.72;71.50
5753;BME280;2901;42.140;24.760;2022-08-19T04:35:04;99010.63;;;25.71;73.26
5753;BME280;2901;42.140;24.760;2022-08-19T04:37:29;99014.09;;;25.61;73.78
5753;BME280;2901;42.140;24.760;2022-08-19T04:39:57;99011.09;;;25.42;74.50
5753;BME280;2901;42.140;24.760;2022-08-19T04:42:41;99018.53;;;25.37;74.28
5753;BME280;2901;42.140;24.760;2022-08-19T04:45:13;99024.19;;;25.32;73.58
5753;BME280;2901;42.140;24.760;2022-08-19T04:47:41;99028.88;;;25.28;74.03
5753;BME280;2901;42.140;24.760;2022-08-19T04:50:07;99023.97;;;25.35;73.58
5753;BME280;2901;42.140;24.760;2022-08-19T04:52:34;99023.34;;;25.32;73.63
5753;BME280;2901;42.140;24.760;2022-08-19T04:54:59;99019.53;;;25.36;73.19
5753;BME280;2901;42.140;24.760;2022-08-19T04:57:25;99022.28;;;25.34;73.19
5753;BME280;2901;42.140;24.760;2022-08-19T04:59:55;99012.84;;;25.30;73.35
5753;BME280;2901;42.140;24.760;2022-08-19T05:02:22;99023.22;;;25.33;73.69
5753;BME280;2901;42.140;24.760;2022-08-19T05:04:56;99017.19;;;25.31;73.37
5753;BME280;2901;42.140;24.760;2022-08-19T05:07:21;99022.50;;;25.31;72.83
5753;BME280;2901;42.140;24.760;2022-08-19T05:09:47;99022.72;;;25.28;72.93
5753;BME280;2901;42.140;24.760;2022-08-19T05:12:12;99019.13;;;25.29;73.29
5753;BME280;2901;42.140;24.760;2022-08-19T05:14:37;99014.09;;;25.37;73.18
5753;BME280;2901;42.140;24.760;2022-08-19T05:17:04;99031.22;;;25.44;72.62
5753;BME280;2901;42.140;24.760;2022-08-19T05:19:29;99031.84;;;25.48;70.53
5753;BME280;2901;42.140;24.760;2022-08-19T05:22:13;99030.81;;;25.50;70.41
5753;BME280;2901;42.140;24.760;2022-08-19T05:24:57;99030.34;;;25.56;69.62
5753;BME280;2901;42.140;24.760;2022-08-19T05:27:23;99039.41;;;25.65;68.61
5753;BME280;2901;42.140;24.760;2022-08-19T05:29:48;99025.56;;;25.72;68.04
5753;BME280;2901;42.140;24.760;2022-08-19T05:32:14;99028.72;;;25.77;67.21
5753;BME280;2901;42.140;24.760;2022-08-19T05:34:39;99024.38;;;25.76;65.81
5753;BME280;2901;42.140;24.760;2022-08-19T05:37:05;99027.78;;;25.90;66.33
5753;BME280;2901;42.140;24.760;2022-08-19T05:39:33;99027.06;;;25.99;65.15
5753;BME280;2901;42.140;24.760;2022-08-19T05:42:01;99026.97;;;26.00;64.23
5753;BME280;2901;42.140;24.760;2022-08-19T05:44:30;99030.47;;;26.01;64.88
5753;BME280;2901;42.140;24.760;2022-08-19T05:46:57;99023.44;;;25.89;63.45
5753;BME280;2901;42.140;24.760;2022-08-19T05:49:23;99032.09;;;25.79;63.58
5753;BME280;2901;42.140;24.760;2022-08-19T05:51:50;99024.38;;;25.76;64.23
5753;BME280;2901;42.140;24.760;2022-08-19T05:54:17;99033.47;;;25.85;63.77
5753;BME280;2901;42.140;24.760;2022-08-19T05:56:43;99033.59;;;25.95;63.82
5753;BME280;2901;42.140;24.760;2022-08-19T05:59:10;99037.22;;;26.05;63.53
5753;BME280;2901;42.140;24.760;2022-08-19T06:01:38;99036.50;;;26.14;63.87
5753;BME280;2901;42.140;24.760;2022-08-19T06:04:05;99036.78;;;26.22;63.70
5753;BME280;2901;42.140;24.760;2022-08-19T06:06:31;99042.13;;;26.33;63.56
5753;BME280;2901;42.140;24.760;2022-08-19T06:09:00;99037.63;;;26.45;62.98
5753;BME280;2901;42.140;24.760;2022-08-19T06:11:39;99042.25;;;26.54;62.79
5753;BME280;2901;42.140;24.760;2022-08-19T06:14:09;99047.41;;;26.66;62.95
5753;BME280;2901;42.140;24.760;2022-08-19T06:16:36;99049.84;;;26.80;63.00
5753;BME280;2901;42.140;24.760;2022-08-19T06:19:06;99041.50;;;26.85;62.11
5753;BME280;2901;42.140;24.760;2022-08-19T06:21:33;99050.78;;;27.02;61.51
5753;BME280;2901;42.140;24.760;2022-08-19T06:23:59;99052.56;;;27.12;60.90
5753;BME280;2901;42.140;24.760;2022-08-19T06:26:25;99043.13;;;27.19;60.70
5753;BME280;2901;42.140;24.760;2022-08-19T06:28:52;99044.19;;;27.28;60.29
5753;BME280;2901;42.140;24.760;2022-08-19T06:31:19;99041.75;;;27.36;60.39
5753;BME280;2901;42.140;24.760;2022-08-19T06:33:47;99043.78;;;27.44;59.65
5753;BME280;2901;42.140;24.760;2022-08-19T06:36:21;99047.53;;;27.52;59.18
5753;BME280;2901;42.140;24.760;2022-08-19T06:38:47;99054.03;;;27.59;57.40
5753;BME280;2901;42.140;24.760;2022-08-19T06:41:13;99056.44;;;27.62;57.24
5753;BME280;2901;42.140;24.760;2022-08-19T06:43:38;99058.03;;;27.74;56.89
5753;BME280;2901;42.140;24.760;2022-08-19T06:46:10;99052.41;;;27.89;56.87
5753;BME280;2901;42.140;24.760;2022-08-19T06:48:36;99063.38;;;27.95;55.77
5753;BME280;2901;42.140;24.760;2022-08-19T06:51:02;99053.31;;;27.99;56.11
5753;BME280;2901;42.140;24.760;2022-08-19T06:53:28;99056.69;;;28.01;56.18
5753;BME280;2901;42.140;24.760;2022-08-19T06:55:54;99052.06;;;28.03;56.14
5753;BME280;2901;42.140;24.760;2022-08-19T06:58:24;99054.97;;;28.11;56.57
5753;BME280;2901;42.140;24.760;2022-08-19T07:00:50;99051.25;;;28.23;55.31
5753;BME280;2901;42.140;24.760;2022-08-19T07:03:16;99058.47;;;28.32;55.18
5753;BME280;2901;42.140;24.760;2022-08-19T07:05:43;99056.19;;;28.27;55.06
5753;BME280;2901;42.140;24.760;2022-08-19T07:08:08;99044.84;;;28.25;55.63
5753;BME280;2901;42.140;24.760;2022-08-19T07:10:34;99045.66;;;28.26;55.39
5753;BME280;2901;42.140;24.760;2022-08-19T07:13:02;99044.34;;;28.41;55.15
5753;BME280;2901;42.140;24.760;2022-08-19T07:15:27;99048.59;;;28.53;55.13
5753;BME280;2901;42.140;24.760;2022-08-19T07:17:53;99044.22;;;28.73;54.80
5753;BME280;2901;42.140;24.760;2022-08-19T07:20:18;99035.09;;;28.75;54.19
5753;BME280;2901;42.140;24.760;2022-08-19T07:22:44;99043.84;;;28.87;51.67
5753;BME280;2901;42.140;24.760;2022-08-19T07:25:10;99035.41;;;28.92;52.97
5753;BME280;2901;42.140;24.760;2022-08-19T07:27:38;99035.88;;;28.97;51.64
5753;BME280;2901;42.140;24.760;2022-08-19T07:30:04;99020.72;;;29.07;52.07
5753;BME280;2901;42.140;24.760;2022-08-19T07:32:30;99029.34;;;29.29;51.13
5753;BME280;2901;42.140;24.760;2022-08-19T07:34:56;99027.25;;;29.33;50.22
5753;BME280;2901;42.140;24.760;2022-08-19T07:37:21;99024.56;;;29.43;49.80
5753;BME280;2901;42.140;24.760;2022-08-19T07:39:47;99031.72;;;29.52;49.85
5753;BME280;2901;42.140;24.760;2022-08-19T07:42:13;99033.25;;;29.54;49.86
5753;BME280;2901;42.140;24.760;2022-08-19T07:44:39;99027.66;;;29.67;49.31
5753;BME280;2901;42.140;24.760;2022-08-19T07:47:05;99031.31;;;29.75;48.95
5753;BME280;2901;42.140;24.760;2022-08-19T07:49:32;99034.94;;;29.74;48.07
5753;BME280;2901;42.140;24.760;2022-08-19T07:52:00;99026.25;;;29.92;48.86
5753;BME280;2901;42.140;24.760;2022-08-19T07:54:29;99025.25;;;30.02;47.87
5753;BME280;2901;42.140;24.760;2022-08-19T07:56:56;99021.00;;;30.19;47.90
5753;BME280;2901;42.140;24.760;2022-08-19T07:59:22;99018.00;;;30.31;46.01
5753;BME280;2901;42.140;24.760;2022-08-19T08:01:48;99026.13;;;30.30;44.94
5753;BME280;2901;42.140;24.760;2022-08-19T08:04:15;99022.59;;;30.39;43.81
5753;BME280;2901;42.140;24.760;2022-08-19T08:06:59;99028.31;;;30.54;43.66
5753;BME280;2901;42.140;24.760;2022-08-19T08:09:43;99023.09;;;30.62;43.15
5753;BME280;2901;42.140;24.760;2022-08-19T08:12:18;99014.19;;;30.71;43.30
5753;BME280;2901;42.140;24.760;2022-08-19T08:14:48;99011.88;;;30.85;44.00
5753;BME280;2901;42.140;24.760;2022-08-19T08:17:19;99018.94;;;31.04;43.24
5753;BME280;2901;42.140;24.760;2022-08-19T08:19:46;99017.59;;;31.18;42.34
5753;BME280;2901;42.140;24.760;2022-08-19T08:22:15;99018.81;;;31.23;42.21
5753;BME280;2901;42.140;24.760;2022-08-19T08:25:06;99009.00;;;31.32;42.72
5753;BME280;2901;42.140;24.760;2022-08-19T08:27:38;99011.09;;;31.38;42.02
5753;BME280;2901;42.140;24.760;2022-08-19T08:30:22;99011.41;;;31.53;42.43
5753;BME280;2901;42.140;24.760;2022-08-19T08:32:48;99011.94;;;31.56;42.56
5753;BME280;2901;42.140;24.760;2022-08-19T08:35:22;99003.91;;;31.56;42.69
5753;BME280;2901;42.140;24.760;2022-08-19T08:37:49;99009.34;;;31.64;42.08
5753;BME280;2901;42.140;24.760;2022-08-19T08:40:26;99003.41;;;31.78;41.92
5753;BME280;2901;42.140;24.760;2022-08-19T08:46:08;99004.91;;;31.99;42.45
5753;BME280;2901;42.140;24.760;2022-08-19T08:48:59;98995.66;;;32.11;40.13
5753;BME280;2901;42.140;24.760;2022-08-19T08:51:33;98998.03;;;32.22;39.21
5753;BME280;2901;42.140;24.760;2022-08-19T08:54:00;98990.38;;;32.27;39.83
5753;BME280;2901;42.140;24.760;2022-08-19T08:56:26;98992.75;;;32.30;39.77
5753;BME280;2901;42.140;24.760;2022-08-19T08:59:36;98997.81;;;32.41;40.08
5753;BME280;2901;42.140;24.760;2022-08-19T09:02:01;98988.97;;;32.49;38.86
5753;BME280;2901;42.140;24.760;2022-08-19T09:04:27;98991.84;;;32.55;38.62
5753;BME280;2901;42.140;24.760;2022-08-19T09:10:04;98983.94;;;32.79;37.30
5753;BME280;2901;42.140;24.760;2022-08-19T09:12:37;98976.44;;;32.99;38.26
5753;BME280;2901;42.140;24.760;2022-08-19T09:15:10;98964.25;;;33.13;37.50
5753;BME280;2901;42.140;24.760;2022-08-19T09:17:37;98964.25;;;33.37;37.69
5753;BME280;2901;42.140;24.760;2022-08-19T09:20:23;98968.75;;;33.53;37.32
5753;BME280;2901;42.140;24.760;2022-08-19T09:22:49;98969.97;;;33.74;37.21
5753;BME280;2901;42.140;24.760;2022-08-19T09:25:17;98963.41;;;33.85;35.67
5753;BME280;2901;42.140;24.760;2022-08-19T09:27:45;98953.47;;;33.94;36.08
5753;BME280;2901;42.140;24.760;2022-08-19T09:30:17;98962.03;;;34.13;34.77
5753;BME280;2901;42.140;24.760;2022-08-19T09:32:43;98949.94;;;34.17;34.98
5753;BME280;2901;42.140;24.760;2022-08-19T09:35:11;98957.09;;;34.33;34.27
5753;BME280;2901;42.140;24.760;2022-08-19T09:37:37;98957.84;;;34.50;33.31
5753;BME280;2901;42.140;24.760;2022-08-19T09:40:03;98950.09;;;34.55;33.15
5753;BME280;2901;42.140;24.760;2022-08-19T09:42:29;98959.28;;;34.76;33.19
5753;BME280;2901;42.140;24.760;2022-08-19T09:44:54;98948.69;;;34.98;33.33
5753;BME280;2901;42.140;24.760;2022-08-19T09:47:20;98944.75;;;35.16;32.64
5753;BME280;2901;42.140;24.760;2022-08-19T09:49:45;98931.31;;;35.31;32.01
5753;BME280;2901;42.140;24.760;2022-08-19T09:52:14;98951.31;;;35.36;31.54
5753;BME280;2901;42.140;24.760;2022-08-19T09:54:40;98935.28;;;35.43;31.13
5753;BME280;2901;42.140;24.760;2022-08-19T09:57:06;98940.06;;;35.33;30.78
5753;BME280;2901;42.140;24.760;2022-08-19T09:59:32;98939.38;;;35.08;31.92
5753;BME280;2901;42.140;24.760;2022-08-19T10:01:57;98934.56;;;35.04;31.60
5753;BME280;2901;42.140;24.760;2022-08-19T10:04:23;98927.44;;;35.11;31.52
5753;BME280;2901;42.140;24.760;2022-08-19T10:07:08;98927.22;;;35.20;31.60
5753;BME280;2901;42.140;24.760;2022-08-19T10:09:34;98922.19;;;35.40;31.31
5753;BME280;2901;42.140;24.760;2022-08-19T10:11:59;98932.09;;;35.62;30.99
5753;BME280;2901;42.140;24.760;2022-08-19T10:14:26;98925.44;;;35.73;31.06
5753;BME280;2901;42.140;24.760;2022-08-19T10:16:52;98921.06;;;35.86;30.90
5753;BME280;2901;42.140;24.760;2022-08-19T10:19:17;98920.22;;;36.01;31.09
5753;BME280;2901;42.140;24.760;2022-08-19T10:21:45;98917.16;;;35.74;31.17
5753;BME280;2901;42.140;24.760;2022-08-19T10:24:10;98912.88;;;35.65;31.05
5753;BME280;2901;42.140;24.760;2022-08-19T10:26:38;98898.84;;;35.47;31.17
5753;BME280;2901;42.140;24.760;2022-08-19T10:29:07;98906.03;;;35.55;31.46
5753;BME280;2901;42.140;24.760;2022-08-19T10:31:33;98903.09;;;35.64;32.19
5753;BME280;2901;42.140;24.760;2022-08-19T10:33:59;98900.72;;;35.69;30.95
5753;BME280;2901;42.140;24.760;2022-08-19T10:36:31;98899.84;;;35.83;30.28
5753;BME280;2901;42.140;24.760;2022-08-19T10:38:59;98897.09;;;35.91;30.74
5753;BME280;2901;42.140;24.760;2022-08-19T10:41:29;98901.34;;;36.01;30.25
5753;BME280;2901;42.140;24.760;2022-08-19T10:43:58;98904.00;;;36.09;29.66
5753;BME280;2901;42.140;24.760;2022-08-19T10:46:25;98902.31;;;36.08;30.15
5753;BME280;2901;42.140;24.760;2022-08-19T10:48:52;98898.63;;;36.09;29.78
5753;BME280;2901;42.140;24.760;2022-08-19T10:51:18;98890.88;;;36.20;29.57
5753;BME280;2901;42.140;24.760;2022-08-19T10:54:03;98899.66;;;36.43;29.90
5753;BME280;2901;42.140;24.760;2022-08-19T10:56:29;98892.22;;;36.60;28.67
5753;BME280;2901;42.140;24.760;2022-08-19T10:59:14;98887.97;;;36.72;28.89
5753;BME280;2901;42.140;24.760;2022-08-19T11:01:42;98888.13;;;36.85;28.64
5753;BME280;2901;42.140;24.760;2022-08-19T11:04:08;98893.22;;;36.95;28.18
5753;BME280;2901;42.140;24.760;2022-08-19T11:06:37;98887.16;;;37.08;27.57
5753;BME280;2901;42.140;24.760;2022-08-19T11:09:04;98882.53;;;37.02;26.54
5753;BME280;2901;42.140;24.760;2022-08-19T11:11:31;98878.38;;;37.06;26.68
5753;BME280;2901;42.140;24.760;2022-08-19T11:13:58;98880.00;;;37.21;26.41
5753;BME280;2901;42.140;24.760;2022-08-19T11:16:25;98871.34;;;37.32;26.81
5753;BME280;2901;42.140;24.760;2022-08-19T11:18:54;98869.34;;;37.41;25.91
5753;BME280;2901;42.140;24.760;2022-08-19T11:21:32;98877.31;;;37.49;25.77
5753;BME280;2901;42.140;24.760;2022-08-19T11:24:00;98872.63;;;37.36;26.15
5753;BME280;2901;42.140;24.760;2022-08-19T11:26:27;98862.75;;;37.22;25.68
5753;BME280;2901;42.140;24.760;2022-08-19T11:28:54;98852.28;;;37.13;25.71
5753;BME280;2901;42.140;24.760;2022-08-19T11:31:23;98860.25;;;37.21;25.81
5753;BME280;2901;42.140;24.760;2022-08-19T11:33:49;98863.25;;;37.32;25.72
5753;BME280;2901;42.140;24.760;2022-08-19T11:36:16;98865.56;;;37.35;25.78
5753;BME280;2901;42.140;24.760;2022-08-19T11:38:43;98862.34;;;37.47;26.21
5753;BME280;2901;42.140;24.760;2022-08-19T11:41:09;98854.53;;;37.58;26.06
5753;BME280;2901;42.140;24.760;2022-08-19T11:43:35;98860.22;;;37.70;25.97
5753;BME280;2901;42.140;24.760;2022-08-19T11:46:10;98860.09;;;37.84;25.82
5753;BME280;2901;42.140;24.760;2022-08-19T11:48:36;98855.72;;;37.83;25.22
5753;BME280;2901;42.140;24.760;2022-08-19T11:51:05;98851.97;;;37.84;24.97
5753;BME280;2901;42.140;24.760;2022-08-19T11:53:32;98851.38;;;37.89;25.01
5753;BME280;2901;42.140;24.760;2022-08-19T11:55:58;98842.09;;;37.98;24.87
5753;BME280;2901;42.140;24.760;2022-08-19T11:58:23;98839.19;;;37.93;24.67
5753;BME280;2901;42.140;24.760;2022-08-19T12:00:50;98839.09;;;37.86;25.13
5753;BME280;2901;42.140;24.760;2022-08-19T12:03:15;98830.69;;;38.03;25.18
5753;BME280;2901;42.140;24.760;2022-08-19T12:05:41;98833.59;;;38.08;24.72
5753;BME280;2901;42.140;24.760;2022-08-19T12:08:07;98835.34;;;38.22;24.71
5753;BME280;2901;42.140;24.760;2022-08-19T12:10:34;98831.19;;;38.26;24.65
5753;BME280;2901;42.140;24.760;2022-08-19T12:13:00;98827.09;;;38.36;24.14
5753;BME280;2901;42.140;24.760;2022-08-19T12:15:26;98816.69;;;38.40;24.60
5753;BME280;2901;42.140;24.760;2022-08-19T12:17:54;98818.59;;;38.46;24.76
5753;BME280;2901;42.140;24.760;2022-08-19T12:20:23;98817.78;;;38.59;24.68
5753;BME280;2901;42.140;24.760;2022-08-19T12:22:49;98808.81;;;38.58;24.31
5753;BME280;2901;42.140;24.760;2022-08-19T12:25:15;98812.56;;;38.64;24.75
5753;BME280;2901;42.140;24.760;2022-08-19T12:27:40;98808.00;;;38.58;24.83
5753;BME280;2901;42.140;24.760;2022-08-19T12:30:08;98801.28;;;38.40;24.54
5753;BME280;2901;42.140;24.760;2022-08-19T12:32:34;98801.47;;;38.32;24.75
5753;BME280;2901;42.140;24.760;2022-08-19T12:34:59;98806.44;;;38.29;24.69
5753;BME280;2901;42.140;24.760;2022-08-19T12:37:25;98805.00;;;38.33;24.86
5753;BME280;2901;42.140;24.760;2022-08-19T12:39:50;98797.50;;;38.35;24.83
5753;BME280;2901;42.140;24.760;2022-08-19T12:42:16;98805.13;;;38.12;24.85
5753;BME280;2901;42.140;24.760;2022-08-19T12:44:43;98804.22;;;37.91;25.09
5753;BME280;2901;42.140;24.760;2022-08-19T12:47:11;98799.06;;;37.97;24.84
5753;BME280;2901;42.140;24.760;2022-08-19T12:49:37;98803.25;;;38.06;24.97
5753;BME280;2901;42.140;24.760;2022-08-19T12:52:05;98794.97;;;38.27;24.69
5753;BME280;2901;42.140;24.760;2022-08-19T12:54:32;98798.09;;;38.24;24.45
5753;BME280;2901;42.140;24.760;2022-08-19T12:56:58;98794.75;;;38.22;24.68
5753;BME280;2901;42.140;24.760;2022-08-19T12:59:25;98786.47;;;38.23;24.46
5753;BME280;2901;42.140;24.760;2022-08-19T13:01:50;98791.94;;;38.36;24.76
5753;BME280;2901;42.140;24.760;2022-08-19T13:04:16;98796.72;;;38.41;24.52
5753;BME280;2901;42.140;24.760;2022-08-19T13:06:42;98782.78;;;38.51;24.45
5753;BME280;2901;42.140;24.760;2022-08-19T13:09:07;98784.28;;;38.66;23.86
5753;BME280;2901;42.140;24.760;2022-08-19T13:11:33;98787.22;;;38.84;23.64
5753;BME280;2901;42.140;24.760;2022-08-19T13:14:00;98778.50;;;39.02;23.62
5753;BME280;2901;42.140;24.760;2022-08-19T13:16:26;98783.25;;;39.20;23.26
5753;BME280;2901;42.140;24.760;2022-08-19T13:18:54;98782.03;;;39.29;23.23
5753;BME280;2901;42.140;24.760;2022-08-19T13:21:22;98786.78;;;39.40;23.61